Cambria, Iowa
Current Conditions -  °F | °C
As of 2:35 AM on Friday 24 Oct 2014 (Local Time) from KCNC Reporting Station
Moderate Fog Moderate Fog  
Wind Chill: 57°   Ceiling: 200
Heat Index: 57°   Visibility: 0mi
Dew Point: 57°   Wind: 6mph
Humidity: 100%   Direction: 210°SSW
Pressure: 30.05"   Gusts: NA
Location:  40.7685°N, 93.3285°W
Report Text: KCNC 240735Z AUTO 21005KT M1/4SM FG OVC002 14/14 A3005 RMK AO2 VIS M1/4V5
Loading
Personal Weather Stations






























Interactive Weather Map
Tropical Storm Tracking
New forecast layout! Learn more

10-Day Weather Forecast

Advertisements
Track Severe Weather on mobile